PJO YLRD-YPAD
Flight info
| Callsign | PJO |
|---|---|
| Flight time | 1h 41m |
| Altitude | 40000 |
| Route | RUXIB Q4 MIA H309 TUMAN |
| Aircraft | CL60/M-SBDE1E2E3FGHIJ1J4J5J7M3RWXYZ/LB1V1D1 |
Departure
| Time | 2026-04-23 09:27 |
|---|---|
| Airport | Lightning Ridge Airport (YLRD) |
Arrival
| Time | 2026-04-23 11:09 |
|---|---|
| Airport | Adelaide International Airport (YPAD) |
| Time | Latitude | Longitude | Altitude | Speed | Heading |
|---|---|---|---|---|---|
| 2026-04-23 08:50 | -29.45298 | 147.98164 | 534 ft | 0 kts | 292° |
| 2026-04-23 09:21 | -29.45296 | 147.98157 | 534 ft | 0 kts | 292° |
| 2026-04-23 09:21 | -29.45295 | 147.98157 | 534 ft | 0 kts | 292° |
| 2026-04-23 09:21 | -29.45295 | 147.98155 | 534 ft | 0 kts | 292° |
| 2026-04-23 09:22 | -29.45295 | 147.98154 | 534 ft | 0 kts | 292° |
| 2026-04-23 09:22 | -29.45300 | 147.98137 | 534 ft | 3 kts | 211° |
| 2026-04-23 09:22 | -29.45333 | 147.98125 | 534 ft | 6 kts | 195° |
| 2026-04-23 09:22 | -29.45362 | 147.98116 | 535 ft | 5 kts | 196° |
| 2026-04-23 09:23 | -29.45389 | 147.98106 | 535 ft | 1 kts | 208° |
| 2026-04-23 09:23 | -29.45393 | 147.98079 | 534 ft | 5 kts | 287° |
| 2026-04-23 09:23 | -29.45374 | 147.98018 | 534 ft | 9 kts | 290° |
| 2026-04-23 09:23 | -29.45348 | 147.97932 | 534 ft | 13 kts | 291° |
| 2026-04-23 09:24 | -29.45311 | 147.97813 | 532 ft | 15 kts | 289° |
| 2026-04-23 09:24 | -29.45274 | 147.97693 | 531 ft | 16 kts | 289° |
| 2026-04-23 09:24 | -29.45237 | 147.97572 | 529 ft | 18 kts | 289° |
| 2026-04-23 09:24 | -29.45202 | 147.97458 | 527 ft | 19 kts | 289° |
| 2026-04-23 09:25 | -29.45160 | 147.97319 | 526 ft | 17 kts | 290° |
| 2026-04-23 09:25 | -29.45119 | 147.97188 | 525 ft | 15 kts | 289° |
| 2026-04-23 09:25 | -29.45086 | 147.97080 | 524 ft | 10 kts | 290° |
| 2026-04-23 09:25 | -29.45069 | 147.97009 | 524 ft | 5 kts | 265° |
| 2026-04-23 09:26 | -29.45060 | 147.96992 | 524 ft | 1 kts | 35° |
| 2026-04-23 09:26 | -29.45066 | 147.97017 | 524 ft | 0 kts | 117° |
| 2026-04-23 09:26 | -29.45102 | 147.97133 | 524 ft | 56 kts | 110° |
| 2026-04-23 09:27 | -29.45330 | 147.97871 | 534 ft | 131 kts | 109° |
| 2026-04-23 09:27 | -29.45671 | 147.98979 | 922 ft | 158 kts | 109° |
| 2026-04-23 09:27 | -29.46108 | 148.00221 | 1526 ft | 174 kts | 112° |
| 2026-04-23 09:27 | -29.46503 | 148.01488 | 2345 ft | 178 kts | 99° |
| 2026-04-23 09:28 | -29.46402 | 148.02994 | 2949 ft | 205 kts | 71° |
| 2026-04-23 09:28 | -29.45574 | 148.04303 | 3749 ft | 202 kts | 41° |
| 2026-04-23 09:28 | -29.44340 | 148.04980 | 4223 ft | 195 kts | 16° |
| 2026-04-23 09:28 | -29.42971 | 148.04993 | 4420 ft | 199 kts | 353° |
| 2026-04-23 09:29 | -29.41707 | 148.04393 | 4620 ft | 203 kts | 324° |
| 2026-04-23 09:29 | -29.40832 | 148.03159 | 4929 ft | 195 kts | 297° |
| 2026-04-23 09:29 | -29.40502 | 148.01631 | 5222 ft | 207 kts | 267° |
| 2026-04-23 09:29 | -29.40846 | 148.00064 | 6002 ft | 201 kts | 237° |
| 2026-04-23 09:30 | -29.41724 | 147.98860 | 6670 ft | 208 kts | 214° |
| 2026-04-23 09:30 | -29.42930 | 147.97952 | 7788 ft | 212 kts | 202° |
| 2026-04-23 09:30 | -29.44381 | 147.97308 | 8553 ft | 239 kts | 194° |
| 2026-04-23 09:30 | -29.45962 | 147.96512 | 9402 ft | 265 kts | 207° |
| 2026-04-23 09:31 | -29.47651 | 147.95386 | 10037 ft | 295 kts | 208° |
| 2026-04-23 09:31 | -29.49455 | 147.94165 | 10548 ft | 308 kts | 208° |
| 2026-04-23 09:31 | -29.51319 | 147.92903 | 11081 ft | 308 kts | 208° |
| 2026-04-23 09:31 | -29.53164 | 147.91655 | 11603 ft | 308 kts | 208° |
| 2026-04-23 09:32 | -29.55007 | 147.90410 | 12118 ft | 310 kts | 208° |
| 2026-04-23 09:32 | -29.56874 | 147.89151 | 12637 ft | 312 kts | 208° |
| 2026-04-23 09:32 | -29.58743 | 147.87891 | 13162 ft | 314 kts | 208° |
| 2026-04-23 09:32 | -29.60644 | 147.86610 | 13702 ft | 316 kts | 208° |
| 2026-04-23 09:33 | -29.62534 | 147.85336 | 14240 ft | 318 kts | 208° |
| 2026-04-23 09:33 | -29.64454 | 147.84044 | 14793 ft | 320 kts | 208° |
| 2026-04-23 09:33 | -29.66373 | 147.82753 | 15343 ft | 322 kts | 208° |
| 2026-04-23 09:33 | -29.68322 | 147.81441 | 15907 ft | 325 kts | 208° |
| 2026-04-23 09:34 | -29.70260 | 147.80136 | 16474 ft | 327 kts | 208° |
| 2026-04-23 09:34 | -29.72235 | 147.78807 | 17055 ft | 329 kts | 208° |
| 2026-04-23 09:34 | -29.74234 | 147.77461 | 17645 ft | 331 kts | 208° |
| 2026-04-23 09:34 | -29.76243 | 147.76108 | 18246 ft | 334 kts | 208° |
| 2026-04-23 09:35 | -29.78151 | 147.74823 | 18829 ft | 335 kts | 208° |
| 2026-04-23 09:35 | -29.80159 | 147.73469 | 19451 ft | 336 kts | 208° |
| 2026-04-23 09:35 | -29.82199 | 147.72095 | 20088 ft | 337 kts | 208° |
| 2026-04-23 09:35 | -29.84223 | 147.70729 | 20731 ft | 338 kts | 208° |
| 2026-04-23 09:36 | -29.86266 | 147.69351 | 21388 ft | 339 kts | 209° |
| 2026-04-23 09:36 | -29.88301 | 147.67978 | 22051 ft | 340 kts | 209° |
| 2026-04-23 09:36 | -29.90340 | 147.66602 | 22730 ft | 341 kts | 209° |
| 2026-04-23 09:36 | -29.92383 | 147.65222 | 23418 ft | 342 kts | 209° |
| 2026-04-23 09:37 | -29.94434 | 147.63838 | 24118 ft | 343 kts | 209° |
| 2026-04-23 09:37 | -29.96519 | 147.62428 | 24835 ft | 345 kts | 209° |
| 2026-04-23 09:37 | -29.98580 | 147.61035 | 25534 ft | 347 kts | 209° |
| 2026-04-23 09:37 | -30.00678 | 147.59616 | 26248 ft | 349 kts | 209° |
| 2026-04-23 09:38 | -30.02766 | 147.58203 | 26960 ft | 351 kts | 209° |
| 2026-04-23 09:38 | -30.04875 | 147.56775 | 27684 ft | 354 kts | 209° |
| 2026-04-23 09:38 | -30.07028 | 147.55318 | 28434 ft | 355 kts | 209° |
| 2026-04-23 09:38 | -30.09156 | 147.53874 | 29174 ft | 356 kts | 209° |
| 2026-04-23 09:39 | -30.11298 | 147.52423 | 29917 ft | 355 kts | 208° |
| 2026-04-23 09:39 | -30.13427 | 147.50978 | 30648 ft | 355 kts | 208° |
| 2026-04-23 09:39 | -30.15567 | 147.49525 | 31358 ft | 353 kts | 208° |
| 2026-04-23 09:39 | -30.17692 | 147.48080 | 32027 ft | 352 kts | 208° |
| 2026-04-23 09:40 | -30.19803 | 147.46646 | 32679 ft | 350 kts | 208° |
| 2026-04-23 09:40 | -30.21878 | 147.45233 | 33302 ft | 348 kts | 208° |
| 2026-04-23 09:40 | -30.23908 | 147.43733 | 33896 ft | 348 kts | 214° |
| 2026-04-23 09:40 | -30.25758 | 147.41829 | 34080 ft | 361 kts | 223° |
| 2026-04-23 09:41 | -30.27507 | 147.39638 | 34109 ft | 374 kts | 224° |
| 2026-04-23 09:41 | -30.29299 | 147.37380 | 34244 ft | 383 kts | 224° |
| 2026-04-23 09:41 | -30.31130 | 147.35074 | 34483 ft | 388 kts | 224° |
| 2026-04-23 09:41 | -30.32984 | 147.32736 | 34815 ft | 389 kts | 225° |
| 2026-04-23 09:42 | -30.34800 | 147.30446 | 35218 ft | 388 kts | 225° |
| 2026-04-23 09:42 | -30.36643 | 147.28117 | 35665 ft | 385 kts | 225° |
| 2026-04-23 09:42 | -30.38460 | 147.25824 | 36096 ft | 383 kts | 225° |
| 2026-04-23 09:42 | -30.40271 | 147.23535 | 36579 ft | 382 kts | 225° |
| 2026-04-23 09:43 | -30.42092 | 147.21234 | 37043 ft | 380 kts | 225° |
| 2026-04-23 09:43 | -30.43903 | 147.18945 | 37470 ft | 379 kts | 225° |
| 2026-04-23 09:43 | -30.45707 | 147.16664 | 37877 ft | 379 kts | 225° |
| 2026-04-23 09:43 | -30.47504 | 147.14391 | 38265 ft | 378 kts | 225° |
| 2026-04-23 09:44 | -30.49300 | 147.12117 | 38640 ft | 377 kts | 225° |
| 2026-04-23 09:44 | -30.51098 | 147.09842 | 38961 ft | 377 kts | 225° |
| 2026-04-23 09:44 | -30.52877 | 147.07590 | 39249 ft | 376 kts | 225° |
| 2026-04-23 09:44 | -30.54649 | 147.05344 | 39516 ft | 376 kts | 225° |
| 2026-04-23 09:45 | -30.56439 | 147.03075 | 39778 ft | 376 kts | 225° |
| 2026-04-23 09:45 | -30.58222 | 147.00813 | 40021 ft | 376 kts | 225° |
| 2026-04-23 09:45 | -30.59982 | 146.98579 | 40264 ft | 375 kts | 225° |
| 2026-04-23 09:46 | -30.63584 | 146.94006 | 40288 ft | 385 kts | 225° |
| 2026-04-23 09:46 | -30.67270 | 146.89322 | 40294 ft | 395 kts | 225° |
| 2026-04-23 09:47 | -30.71070 | 146.84485 | 40287 ft | 403 kts | 225° |
| 2026-04-23 09:47 | -30.74897 | 146.79608 | 40296 ft | 411 kts | 225° |
| 2026-04-23 09:48 | -30.78783 | 146.74649 | 40301 ft | 417 kts | 225° |
| 2026-04-23 09:48 | -30.82719 | 146.69618 | 40298 ft | 419 kts | 225° |
| 2026-04-23 09:49 | -30.86659 | 146.64577 | 40305 ft | 419 kts | 225° |
| 2026-04-23 09:49 | -30.90604 | 146.59521 | 40309 ft | 419 kts | 225° |
| 2026-04-23 09:50 | -30.94529 | 146.54488 | 40310 ft | 418 kts | 225° |
| 2026-04-23 09:50 | -30.98432 | 146.49474 | 40313 ft | 417 kts | 225° |
| 2026-04-23 09:51 | -31.02350 | 146.44437 | 40324 ft | 416 kts | 225° |
| 2026-04-23 09:51 | -31.06253 | 146.39410 | 40330 ft | 416 kts | 225° |
| 2026-04-23 09:52 | -31.10168 | 146.34357 | 40349 ft | 417 kts | 225° |
| 2026-04-23 09:52 | -31.14064 | 146.29321 | 40328 ft | 418 kts | 225° |
| 2026-04-23 09:53 | -31.17970 | 146.24269 | 40315 ft | 417 kts | 225° |
| 2026-04-23 09:53 | -31.21863 | 146.19237 | 40321 ft | 415 kts | 225° |
| 2026-04-23 09:54 | -31.25772 | 146.14175 | 40324 ft | 415 kts | 225° |
| 2026-04-23 09:54 | -31.29629 | 146.09174 | 40325 ft | 415 kts | 225° |
| 2026-04-23 09:55 | -31.33524 | 146.04114 | 40322 ft | 414 kts | 225° |
| 2026-04-23 09:55 | -31.37385 | 145.99092 | 40313 ft | 415 kts | 225° |
| 2026-04-23 09:56 | -31.41252 | 145.94055 | 40316 ft | 415 kts | 225° |
| 2026-04-23 09:56 | -31.45128 | 145.88998 | 40312 ft | 415 kts | 225° |
| 2026-04-23 09:57 | -31.49023 | 145.83910 | 40311 ft | 415 kts | 225° |
| 2026-04-23 09:57 | -31.52908 | 145.78827 | 40310 ft | 415 kts | 225° |
| 2026-04-23 09:58 | -31.56749 | 145.73795 | 40314 ft | 415 kts | 225° |
| 2026-04-23 09:58 | -31.60645 | 145.68684 | 40311 ft | 416 kts | 225° |
| 2026-04-23 09:59 | -31.64530 | 145.63582 | 40314 ft | 416 kts | 225° |
| 2026-04-23 09:59 | -31.68393 | 145.58499 | 40313 ft | 416 kts | 225° |
| 2026-04-23 10:00 | -31.72245 | 145.53427 | 40313 ft | 416 kts | 225° |
| 2026-04-23 10:00 | -31.76126 | 145.48306 | 40314 ft | 416 kts | 225° |
| 2026-04-23 10:01 | -31.79968 | 145.43233 | 40309 ft | 416 kts | 225° |
| 2026-04-23 10:01 | -31.83844 | 145.38106 | 40311 ft | 416 kts | 225° |
| 2026-04-23 10:02 | -31.87685 | 145.33017 | 40311 ft | 416 kts | 225° |
| 2026-04-23 10:02 | -31.91544 | 145.27899 | 40321 ft | 416 kts | 225° |
| 2026-04-23 10:03 | -31.95401 | 145.22778 | 40323 ft | 417 kts | 225° |
| 2026-04-23 10:03 | -31.99248 | 145.17662 | 40323 ft | 416 kts | 225° |
| 2026-04-23 10:04 | -32.03124 | 145.12501 | 40326 ft | 416 kts | 225° |
| 2026-04-23 10:04 | -32.06955 | 145.07391 | 40328 ft | 417 kts | 225° |
| 2026-04-23 10:05 | -32.10833 | 145.02212 | 40326 ft | 417 kts | 225° |
| 2026-04-23 10:05 | -32.14723 | 144.97011 | 40320 ft | 418 kts | 225° |
| 2026-04-23 10:06 | -32.18583 | 144.91843 | 40313 ft | 417 kts | 225° |
| 2026-04-23 10:06 | -32.22415 | 144.86703 | 40308 ft | 417 kts | 225° |
| 2026-04-23 10:07 | -32.26265 | 144.81534 | 40310 ft | 416 kts | 225° |
| 2026-04-23 10:07 | -32.30119 | 144.76350 | 40310 ft | 417 kts | 225° |
| 2026-04-23 10:08 | -32.33958 | 144.71182 | 40313 ft | 417 kts | 225° |
| 2026-04-23 10:08 | -32.37817 | 144.65977 | 40312 ft | 417 kts | 225° |
| 2026-04-23 10:09 | -32.43564 | 144.58215 | 40317 ft | 418 kts | 225° |
| 2026-04-23 10:09 | -32.47390 | 144.53038 | 40316 ft | 418 kts | 225° |
| 2026-04-23 10:10 | -32.51232 | 144.47832 | 40315 ft | 418 kts | 225° |
| 2026-04-23 10:10 | -32.55099 | 144.42583 | 40315 ft | 417 kts | 225° |
| 2026-04-23 10:11 | -32.58935 | 144.37370 | 40313 ft | 418 kts | 225° |
| 2026-04-23 10:11 | -32.62768 | 144.32155 | 40319 ft | 418 kts | 226° |
| 2026-04-23 10:12 | -32.66616 | 144.26910 | 40317 ft | 418 kts | 225° |
| 2026-04-23 10:12 | -32.70447 | 144.21683 | 40306 ft | 419 kts | 225° |
| 2026-04-23 10:13 | -32.74285 | 144.16435 | 40300 ft | 419 kts | 225° |
| 2026-04-23 10:13 | -32.78135 | 144.11168 | 40309 ft | 419 kts | 226° |
| 2026-04-23 10:14 | -32.81984 | 144.05890 | 40310 ft | 419 kts | 226° |
| 2026-04-23 10:14 | -32.85797 | 144.00656 | 40303 ft | 419 kts | 226° |
| 2026-04-23 10:15 | -32.89628 | 143.95389 | 40307 ft | 419 kts | 226° |
| 2026-04-23 10:15 | -32.93462 | 143.90111 | 40307 ft | 419 kts | 226° |
| 2026-04-23 10:16 | -32.97274 | 143.84857 | 40303 ft | 420 kts | 226° |
| 2026-04-23 10:16 | -33.01101 | 143.79573 | 40304 ft | 420 kts | 226° |
| 2026-04-23 10:17 | -33.04940 | 143.74265 | 40307 ft | 419 kts | 226° |
| 2026-04-23 10:17 | -33.08776 | 143.68953 | 40304 ft | 419 kts | 226° |
| 2026-04-23 10:18 | -33.12598 | 143.63652 | 40313 ft | 418 kts | 226° |
| 2026-04-23 10:18 | -33.16425 | 143.58337 | 40322 ft | 418 kts | 226° |
| 2026-04-23 10:19 | -33.20212 | 143.53070 | 40319 ft | 418 kts | 226° |
| 2026-04-23 10:19 | -33.24020 | 143.47766 | 40314 ft | 418 kts | 226° |
| 2026-04-23 10:20 | -33.27820 | 143.42465 | 40318 ft | 419 kts | 226° |
| 2026-04-23 10:20 | -33.31622 | 143.37154 | 40317 ft | 419 kts | 226° |
| 2026-04-23 10:21 | -33.35431 | 143.31824 | 40318 ft | 419 kts | 227° |
| 2026-04-23 10:21 | -33.39223 | 143.26512 | 40314 ft | 419 kts | 227° |
| 2026-04-23 10:22 | -33.43010 | 143.21197 | 40313 ft | 418 kts | 227° |
| 2026-04-23 10:22 | -33.46798 | 143.15875 | 40325 ft | 419 kts | 227° |
| 2026-04-23 10:23 | -33.50590 | 143.10538 | 40337 ft | 419 kts | 227° |
| 2026-04-23 10:23 | -33.54377 | 143.05200 | 40336 ft | 420 kts | 227° |
| 2026-04-23 10:24 | -33.58172 | 142.99844 | 40335 ft | 421 kts | 227° |
| 2026-04-23 10:24 | -33.61993 | 142.94441 | 40334 ft | 420 kts | 227° |
| 2026-04-23 10:25 | -33.65799 | 142.89053 | 40334 ft | 420 kts | 227° |
| 2026-04-23 10:25 | -33.69587 | 142.83682 | 40335 ft | 419 kts | 227° |
| 2026-04-23 10:26 | -33.73407 | 142.78256 | 40326 ft | 419 kts | 227° |
| 2026-04-23 10:26 | -33.77171 | 142.72903 | 40323 ft | 419 kts | 227° |
| 2026-04-23 10:27 | -33.80989 | 142.67464 | 40322 ft | 419 kts | 227° |
| 2026-04-23 10:27 | -33.84771 | 142.62068 | 40325 ft | 420 kts | 227° |
| 2026-04-23 10:28 | -33.88555 | 142.56662 | 40321 ft | 421 kts | 227° |
| 2026-04-23 10:28 | -33.92329 | 142.51263 | 40324 ft | 421 kts | 227° |
| 2026-04-23 10:29 | -33.96104 | 142.45853 | 40326 ft | 421 kts | 227° |
| 2026-04-23 10:29 | -33.99895 | 142.40411 | 40337 ft | 421 kts | 227° |
| 2026-04-23 10:30 | -34.03678 | 142.34973 | 40327 ft | 422 kts | 228° |
| 2026-04-23 10:30 | -34.07466 | 142.29521 | 40332 ft | 422 kts | 228° |
| 2026-04-23 10:31 | -34.11225 | 142.24100 | 40327 ft | 421 kts | 228° |
| 2026-04-23 10:31 | -34.15004 | 142.18642 | 40329 ft | 421 kts | 228° |
| 2026-04-23 10:32 | -34.18784 | 142.13176 | 40328 ft | 421 kts | 228° |
| 2026-04-23 10:32 | -34.22114 | 142.07329 | 40327 ft | 425 kts | 240° |
| 2026-04-23 10:33 | -34.24115 | 142.00543 | 40331 ft | 430 kts | 252° |
| 2026-04-23 10:33 | -34.25657 | 141.93533 | 40339 ft | 431 kts | 252° |
| 2026-04-23 10:34 | -34.27204 | 141.86490 | 40336 ft | 432 kts | 252° |
| 2026-04-23 10:34 | -34.28747 | 141.79439 | 40337 ft | 432 kts | 252° |
| 2026-04-23 10:35 | -34.30278 | 141.72420 | 40332 ft | 431 kts | 252° |
| 2026-04-23 10:35 | -34.31812 | 141.65359 | 40333 ft | 431 kts | 252° |
| 2026-04-23 10:36 | -34.33333 | 141.58334 | 40334 ft | 431 kts | 252° |
| 2026-04-23 10:36 | -34.34870 | 141.51219 | 40327 ft | 431 kts | 252° |
| 2026-04-23 10:37 | -34.36387 | 141.44170 | 40325 ft | 431 kts | 252° |
| 2026-04-23 10:37 | -34.37912 | 141.37061 | 40320 ft | 431 kts | 252° |
| 2026-04-23 10:38 | -34.39423 | 141.29997 | 40323 ft | 431 kts | 253° |
| 2026-04-23 10:38 | -34.40921 | 141.22967 | 40324 ft | 431 kts | 253° |
| 2026-04-23 10:39 | -34.42423 | 141.15903 | 40324 ft | 431 kts | 253° |
| 2026-04-23 10:39 | -34.43923 | 141.08821 | 40321 ft | 432 kts | 253° |
| 2026-04-23 10:40 | -34.45409 | 141.01785 | 40322 ft | 432 kts | 253° |
| 2026-04-23 10:40 | -34.46898 | 140.94716 | 40323 ft | 432 kts | 253° |
| 2026-04-23 10:41 | -34.48384 | 140.87634 | 40319 ft | 431 kts | 253° |
| 2026-04-23 10:41 | -34.49859 | 140.80580 | 40316 ft | 431 kts | 253° |
| 2026-04-23 10:42 | -34.51328 | 140.73540 | 40319 ft | 430 kts | 253° |
| 2026-04-23 10:42 | -34.52807 | 140.66423 | 40319 ft | 430 kts | 253° |
| 2026-04-23 10:43 | -34.54274 | 140.59348 | 40320 ft | 430 kts | 253° |
| 2026-04-23 10:43 | -34.55734 | 140.52278 | 39844 ft | 427 kts | 253° |
| 2026-04-23 10:44 | -34.56457 | 140.48767 | 39222 ft | 422 kts | 254° |
| 2026-04-23 10:44 | -34.57164 | 140.45329 | 38645 ft | 417 kts | 253° |
| 2026-04-23 10:44 | -34.57864 | 140.41919 | 38088 ft | 412 kts | 254° |
| 2026-04-23 10:44 | -34.58552 | 140.38568 | 37544 ft | 407 kts | 254° |
| 2026-04-23 10:45 | -34.59234 | 140.35236 | 37020 ft | 402 kts | 254° |
| 2026-04-23 10:45 | -34.59910 | 140.31931 | 36506 ft | 397 kts | 254° |
| 2026-04-23 10:45 | -34.60566 | 140.28703 | 36004 ft | 392 kts | 255° |
| 2026-04-23 10:45 | -34.61205 | 140.25491 | 35500 ft | 388 kts | 255° |
| 2026-04-23 10:46 | -34.61840 | 140.22295 | 35000 ft | 389 kts | 255° |
| 2026-04-23 10:46 | -34.62477 | 140.19089 | 34520 ft | 392 kts | 255° |
| 2026-04-23 10:46 | -34.63120 | 140.15849 | 34030 ft | 394 kts | 255° |
| 2026-04-23 10:46 | -34.63765 | 140.12593 | 33534 ft | 396 kts | 255° |
| 2026-04-23 10:47 | -34.64404 | 140.09358 | 32996 ft | 395 kts | 255° |
| 2026-04-23 10:47 | -34.65038 | 140.06143 | 32485 ft | 392 kts | 255° |
| 2026-04-23 10:47 | -34.65675 | 140.02911 | 31959 ft | 389 kts | 255° |
| 2026-04-23 10:47 | -34.66296 | 139.99756 | 31450 ft | 385 kts | 255° |
| 2026-04-23 10:48 | -34.66919 | 139.96584 | 30935 ft | 382 kts | 255° |
| 2026-04-23 10:48 | -34.67534 | 139.93443 | 30426 ft | 379 kts | 255° |
| 2026-04-23 10:48 | -34.68140 | 139.90350 | 29923 ft | 376 kts | 255° |
| 2026-04-23 10:48 | -34.68742 | 139.87271 | 29433 ft | 373 kts | 255° |
| 2026-04-23 10:49 | -34.69339 | 139.84215 | 28932 ft | 371 kts | 255° |
| 2026-04-23 10:49 | -34.69932 | 139.81177 | 28444 ft | 369 kts | 255° |
| 2026-04-23 10:49 | -34.70521 | 139.78152 | 27954 ft | 366 kts | 255° |
| 2026-04-23 10:49 | -34.71108 | 139.75133 | 27465 ft | 364 kts | 255° |
| 2026-04-23 10:50 | -34.71688 | 139.72145 | 26984 ft | 361 kts | 255° |
| 2026-04-23 10:50 | -34.72256 | 139.69218 | 26509 ft | 359 kts | 256° |
| 2026-04-23 10:50 | -34.72829 | 139.66260 | 26028 ft | 357 kts | 256° |
| 2026-04-23 10:50 | -34.73399 | 139.63313 | 25554 ft | 354 kts | 256° |
| 2026-04-23 10:51 | -34.73956 | 139.60429 | 25084 ft | 352 kts | 256° |
| 2026-04-23 10:51 | -34.74514 | 139.57536 | 24623 ft | 350 kts | 256° |
| 2026-04-23 10:51 | -34.75070 | 139.54649 | 24155 ft | 348 kts | 256° |
| 2026-04-23 10:51 | -34.75622 | 139.51779 | 23696 ft | 346 kts | 256° |
| 2026-04-23 10:52 | -34.76172 | 139.48914 | 23236 ft | 344 kts | 256° |
| 2026-04-23 10:52 | -34.76709 | 139.46115 | 22779 ft | 342 kts | 256° |
| 2026-04-23 10:52 | -34.77253 | 139.43278 | 22326 ft | 341 kts | 256° |
| 2026-04-23 10:52 | -34.77891 | 139.40517 | 21875 ft | 339 kts | 248° |
| 2026-04-23 10:53 | -34.78863 | 139.37912 | 21398 ft | 337 kts | 244° |
| 2026-04-23 10:53 | -34.79850 | 139.35347 | 20964 ft | 335 kts | 244° |
| 2026-04-23 10:53 | -34.80838 | 139.32764 | 20515 ft | 334 kts | 245° |
| 2026-04-23 10:53 | -34.81820 | 139.30196 | 20069 ft | 333 kts | 245° |
| 2026-04-23 10:54 | -34.82799 | 139.27631 | 19633 ft | 332 kts | 245° |
| 2026-04-23 10:54 | -34.83772 | 139.25078 | 19180 ft | 331 kts | 246° |
| 2026-04-23 10:54 | -34.84742 | 139.22528 | 18750 ft | 330 kts | 246° |
| 2026-04-23 10:54 | -34.85701 | 139.20007 | 18314 ft | 330 kts | 246° |
| 2026-04-23 10:55 | -34.86665 | 139.17470 | 17878 ft | 329 kts | 246° |
| 2026-04-23 10:55 | -34.87624 | 139.14941 | 17445 ft | 328 kts | 246° |
| 2026-04-23 10:55 | -34.88587 | 139.12401 | 17004 ft | 326 kts | 246° |
| 2026-04-23 10:55 | -34.89054 | 139.11169 | 16795 ft | 325 kts | 246° |
| 2026-04-23 10:56 | -34.90006 | 139.08656 | 16370 ft | 323 kts | 246° |
| 2026-04-23 10:56 | -34.90933 | 139.06203 | 15932 ft | 321 kts | 246° |
| 2026-04-23 10:56 | -34.91866 | 139.03735 | 15520 ft | 319 kts | 246° |
| 2026-04-23 10:56 | -34.92786 | 139.01297 | 15096 ft | 317 kts | 246° |
| 2026-04-23 10:57 | -34.93710 | 138.98846 | 14671 ft | 316 kts | 246° |
| 2026-04-23 10:57 | -34.94619 | 138.96434 | 14252 ft | 314 kts | 246° |
| 2026-04-23 10:57 | -34.95525 | 138.94028 | 13846 ft | 312 kts | 246° |
| 2026-04-23 10:57 | -34.96437 | 138.91603 | 13421 ft | 311 kts | 246° |
| 2026-04-23 10:58 | -34.97326 | 138.89239 | 13013 ft | 309 kts | 246° |
| 2026-04-23 10:58 | -34.98224 | 138.86848 | 12598 ft | 307 kts | 246° |
| 2026-04-23 10:58 | -34.99109 | 138.84491 | 12028 ft | 311 kts | 246° |
| 2026-04-23 10:58 | -35.00006 | 138.82098 | 11568 ft | 310 kts | 246° |
| 2026-04-23 10:59 | -35.00885 | 138.79748 | 11362 ft | 299 kts | 246° |
| 2026-04-23 10:59 | -35.01733 | 138.77447 | 10977 ft | 301 kts | 247° |
| 2026-04-23 10:59 | -35.02559 | 138.75107 | 10525 ft | 302 kts | 248° |
| 2026-04-23 10:59 | -35.03393 | 138.72752 | 10023 ft | 302 kts | 246° |
| 2026-04-23 11:00 | -35.04293 | 138.70444 | 9578 ft | 300 kts | 244° |
| 2026-04-23 11:00 | -35.05261 | 138.68213 | 9184 ft | 296 kts | 243° |
| 2026-04-23 11:00 | -35.06123 | 138.65981 | 8789 ft | 292 kts | 247° |
| 2026-04-23 11:00 | -35.06931 | 138.63705 | 8321 ft | 292 kts | 246° |
| 2026-04-23 11:01 | -35.07769 | 138.61450 | 7875 ft | 290 kts | 246° |
| 2026-04-23 11:01 | -35.08598 | 138.59227 | 7461 ft | 287 kts | 246° |
| 2026-04-23 11:01 | -35.09424 | 138.57045 | 7021 ft | 285 kts | 246° |
| 2026-04-23 11:01 | -35.10241 | 138.54848 | 6678 ft | 279 kts | 246° |
| 2026-04-23 11:02 | -35.11028 | 138.52724 | 6504 ft | 267 kts | 246° |
| 2026-04-23 11:02 | -35.11777 | 138.50693 | 6369 ft | 258 kts | 246° |
| 2026-04-23 11:02 | -35.12527 | 138.48669 | 6041 ft | 264 kts | 247° |
| 2026-04-23 11:02 | -35.13213 | 138.46584 | 5549 ft | 267 kts | 256° |
| 2026-04-23 11:03 | -35.13446 | 138.44363 | 4863 ft | 267 kts | 277° |
| 2026-04-23 11:03 | -35.12951 | 138.42290 | 4653 ft | 245 kts | 305° |
| 2026-04-23 11:03 | -35.11802 | 138.40932 | 4391 ft | 224 kts | 332° |
| 2026-04-23 11:03 | -35.10500 | 138.39989 | 4024 ft | 219 kts | 332° |
| 2026-04-23 11:04 | -35.09181 | 138.39053 | 3580 ft | 217 kts | 333° |
| 2026-04-23 11:04 | -35.07887 | 138.38220 | 3384 ft | 201 kts | 343° |
| 2026-04-23 11:04 | -35.06587 | 138.38026 | 3341 ft | 176 kts | 10° |
| 2026-04-23 11:04 | -35.05471 | 138.38620 | 3229 ft | 176 kts | 32° |
| 2026-04-23 11:05 | -35.04475 | 138.39499 | 2829 ft | 180 kts | 35° |
| 2026-04-23 11:05 | -35.03583 | 138.40561 | 2344 ft | 179 kts | 48° |
| 2026-04-23 11:05 | -35.02808 | 138.41664 | 2116 ft | 163 kts | 46° |
| 2026-04-23 11:05 | -35.02078 | 138.42717 | 2112 ft | 165 kts | 47° |
| 2026-04-23 11:06 | -35.00655 | 138.44823 | 2016 ft | 153 kts | 47° |
| 2026-04-23 11:06 | -34.99983 | 138.45756 | 1763 ft | 135 kts | 47° |
| 2026-04-23 11:06 | -34.99387 | 138.46605 | 1332 ft | 130 kts | 47° |
| 2026-04-23 11:07 | -34.98816 | 138.47409 | 914 ft | 122 kts | 48° |
| 2026-04-23 11:07 | -34.98283 | 138.48190 | 779 ft | 125 kts | 47° |
| 2026-04-23 11:07 | -34.97750 | 138.48972 | 562 ft | 116 kts | 47° |
| 2026-04-23 11:07 | -34.97196 | 138.49760 | 509 ft | 118 kts | 47° |
| 2026-04-23 11:08 | -34.96670 | 138.50522 | 295 ft | 114 kts | 47° |
| 2026-04-23 11:08 | -34.96155 | 138.51277 | 155 ft | 117 kts | 49° |
| 2026-04-23 11:08 | -34.95638 | 138.52026 | 47 ft | 110 kts | 50° |
| 2026-04-23 11:08 | -34.95207 | 138.52657 | 18 ft | 75 kts | 50° |
| 2026-04-23 11:09 | -34.94940 | 138.53047 | 19 ft | 57 kts | 51° |
| 2026-04-23 11:09 | -34.94713 | 138.53380 | 21 ft | 47 kts | 50° |
| 2026-04-23 11:09 | -34.94604 | 138.53522 | 22 ft | 12 kts | 18° |
| 2026-04-23 11:09 | -34.94541 | 138.53470 | 22 ft | 7 kts | 307° |
| 2026-04-23 11:10 | -34.94510 | 138.53420 | 22 ft | 0 kts | 302° |
| 2026-04-23 11:10 | -34.94502 | 138.53403 | 22 ft | 4 kts | 296° |
| 2026-04-23 11:10 | -34.94500 | 138.53354 | 22 ft | 8 kts | 248° |
| 2026-04-23 11:10 | -34.94519 | 138.53262 | 21 ft | 14 kts | 275° |
| 2026-04-23 11:11 | -34.94472 | 138.53145 | 21 ft | 16 kts | 303° |
| 2026-04-23 11:11 | -34.94400 | 138.53011 | 20 ft | 17 kts | 303° |
| 2026-04-23 11:11 | -34.94297 | 138.52918 | 20 ft | 18 kts | 358° |
| 2026-04-23 11:11 | -34.94195 | 138.52936 | 20 ft | 14 kts | 359° |
| 2026-04-23 11:12 | -34.94090 | 138.52931 | 20 ft | 15 kts | 11° |
| 2026-04-23 11:12 | -34.93978 | 138.52957 | 21 ft | 13 kts | 10° |
| 2026-04-23 11:12 | -34.93904 | 138.53008 | 21 ft | 9 kts | 50° |
| 2026-04-23 11:12 | -34.93861 | 138.53070 | 22 ft | 12 kts | 53° |
| 2026-04-23 11:13 | -34.93841 | 138.53183 | 22 ft | 15 kts | 115° |
| 2026-04-23 11:13 | -34.93880 | 138.53229 | 24 ft | 9 kts | 122° |
| 2026-04-23 11:13 | -34.93924 | 138.53253 | 25 ft | 3 kts | 227° |
| 2026-04-23 11:13 | -34.93927 | 138.53250 | 25 ft | 0 kts | 227° |